createdAt,value
2019-04-23T00:02:24.802Z,16.40
2019-04-23T00:04:48.144Z,16.40
2019-04-23T00:07:38.143Z,16.40
2019-04-23T00:10:01.137Z,16.30
2019-04-23T00:12:32.754Z,16.40
2019-04-23T00:17:31.928Z,16.30
2019-04-23T00:19:55.700Z,16.30
2019-04-23T00:22:39.417Z,16.40
2019-04-23T00:25:33.150Z,16.40
2019-04-23T00:27:50.354Z,16.30
2019-04-23T00:30:12.959Z,16.30
2019-04-23T00:32:44.637Z,16.30
2019-04-23T00:35:14.440Z,16.30
2019-04-23T00:37:55.136Z,16.30
2019-04-23T00:40:11.325Z,16.20
2019-04-23T00:42:42.795Z,16.20
2019-04-23T00:45:08.339Z,16.20
2019-04-23T00:47:40.071Z,16.20
2019-04-23T00:50:15.338Z,16.20
2019-04-23T00:52:55.516Z,16.20
2019-04-23T00:55:10.656Z,16.20
2019-04-23T00:57:35.452Z,16.20
2019-04-23T01:00:10.148Z,16.20
2019-04-23T01:02:37.476Z,16.20
2019-04-23T01:05:16.263Z,16.20
2019-04-23T01:07:31.900Z,16.10
2019-04-23T01:15:11.990Z,16.10
2019-04-23T01:20:14.575Z,16.10
2019-04-23T01:22:27.604Z,16.10
2019-04-23T01:25:11.243Z,16.00
2019-04-23T01:30:29.947Z,16.10
2019-04-23T01:33:03.886Z,16.00
2019-04-23T01:35:25.490Z,16.00
2019-04-23T01:37:59.040Z,16.00
2019-04-23T01:40:36.666Z,16.00
2019-04-23T01:43:02.983Z,16.00
2019-04-23T01:45:28.503Z,15.90
2019-04-23T01:48:12.493Z,15.90
2019-04-23T01:50:37.345Z,15.90
2019-04-23T01:53:13.737Z,15.90
2019-04-23T01:55:33.064Z,15.90
2019-04-23T01:58:23.907Z,15.90
2019-04-23T02:00:34.112Z,16.00
2019-04-23T02:03:04.346Z,15.90
2019-04-23T02:05:34.974Z,15.90
2019-04-23T02:08:03.583Z,15.80
2019-04-23T02:10:41.571Z,15.90
2019-04-23T02:15:37.882Z,15.90
2019-04-23T02:18:06.600Z,15.90
2019-04-23T02:20:39.786Z,15.90
2019-04-23T02:23:28.020Z,15.90
2019-04-23T02:25:50.180Z,15.90
2019-04-23T02:28:17.068Z,15.90
2019-04-23T02:38:31.248Z,15.80
2019-04-23T02:43:16.723Z,15.80
2019-04-23T02:46:04.387Z,15.80
2019-04-23T02:50:48.115Z,15.80
2019-04-23T02:53:37.634Z,15.80
2019-04-23T02:58:28.272Z,15.80
2019-04-23T03:01:06.835Z,15.80
2019-04-23T03:03:28.116Z,15.80
2019-04-23T03:05:50.655Z,15.80
2019-04-23T03:08:26.809Z,15.80
2019-04-23T03:10:53.529Z,15.70
2019-04-23T03:13:31.774Z,15.70
2019-04-23T03:19:02.583Z,15.80
2019-04-23T03:21:46.852Z,15.70
2019-04-23T03:24:28.656Z,15.70
2019-04-23T03:27:09.960Z,15.60
2019-04-23T03:39:36.537Z,15.60
2019-04-23T03:41:50.336Z,15.60
2019-04-23T03:44:20.616Z,15.60
2019-04-23T03:46:46.753Z,15.60
2019-04-23T03:49:32.978Z,15.60
2019-04-23T03:59:20.287Z,15.60
2019-04-23T04:01:51.546Z,15.60
2019-04-23T04:06:56.401Z,15.70
2019-04-23T04:11:29.099Z,15.70
2019-04-23T04:14:25.144Z,15.70
2019-04-23T04:19:19.958Z,15.70
2019-04-23T04:21:39.046Z,15.70
2019-04-23T04:29:12.996Z,15.60
2019-04-23T04:31:45.742Z,15.70
2019-04-23T04:34:24.781Z,15.60
2019-04-23T04:36:56.744Z,15.70
2019-04-23T04:39:08.052Z,15.70
2019-04-23T04:41:40.489Z,15.70
2019-04-23T04:49:10.484Z,15.60
2019-04-23T04:51:55.515Z,15.40
2019-04-23T04:54:12.653Z,15.40
2019-04-23T05:01:28.765Z,15.50
2019-04-23T05:03:53.190Z,15.50
2019-04-23T05:06:38.006Z,15.50
2019-04-23T05:09:02.124Z,15.50
2019-04-23T05:11:42.479Z,15.40
2019-04-23T05:16:29.458Z,15.40
2019-04-23T05:24:06.816Z,15.40
2019-04-23T05:26:27.179Z,15.40
2019-04-23T05:39:07.642Z,15.40
2019-04-23T05:41:30.401Z,15.50
2019-04-23T05:44:05.158Z,15.50
2019-04-23T05:49:04.526Z,15.50
2019-04-23T05:51:27.994Z,15.60
2019-04-23T05:56:27.779Z,15.60
2019-04-23T05:58:59.600Z,15.60
2019-04-23T06:04:05.314Z,15.70
2019-04-23T06:06:37.249Z,15.70
2019-04-23T06:09:05.696Z,15.60
2019-04-23T06:11:43.765Z,15.70
2019-04-23T06:14:08.168Z,15.70
2019-04-23T06:16:33.024Z,15.80
2019-04-23T06:19:01.383Z,15.80
2019-04-23T06:21:29.010Z,15.80
2019-04-23T06:24:02.395Z,15.80
2019-04-23T06:26:40.064Z,15.80
2019-04-23T06:29:00.854Z,15.90
2019-04-23T06:31:24.501Z,15.90
2019-04-23T06:33:53.915Z,15.90
2019-04-23T06:36:30.658Z,15.90
2019-04-23T06:38:57.117Z,15.90
2019-04-23T06:41:21.976Z,16.00
2019-04-23T06:44:06.063Z,15.90
2019-04-23T06:46:30.682Z,16.00
2019-04-23T06:48:57.184Z,16.00
2019-04-23T06:53:59.464Z,16.10
2019-04-23T06:59:12.441Z,16.10
2019-04-23T07:01:27.738Z,16.00
2019-04-23T07:03:56.950Z,16.10
2019-04-23T07:07:36.547Z,16.10
2019-04-23T07:11:30.337Z,16.20
2019-04-23T07:13:55.711Z,16.20
2019-04-23T07:16:32.915Z,16.20
2019-04-23T07:18:46.999Z,16.20
2019-04-23T07:23:58.971Z,16.30
2019-04-23T07:26:30.122Z,16.30
2019-04-23T07:31:20.354Z,16.30
2019-04-23T07:33:52.808Z,16.30
2019-04-23T07:36:22.836Z,16.30
2019-04-23T07:44:48.493Z,16.30
2019-04-23T07:47:47.440Z,16.40
2019-04-23T07:50:24.094Z,16.40
2019-04-23T07:52:54.557Z,16.40
2019-04-23T07:55:23.645Z,16.40
2019-04-23T07:57:54.476Z,16.50
2019-04-23T08:00:18.294Z,16.50
2019-04-23T08:02:44.177Z,16.50
2019-04-23T08:05:26.412Z,16.50
2019-04-23T08:07:44.105Z,16.50
2019-04-23T08:10:17.031Z,16.50
2019-04-23T08:15:18.163Z,16.50
2019-04-23T08:17:37.548Z,16.50
2019-04-23T08:20:29.946Z,16.50
2019-04-23T08:22:39.403Z,16.50
2019-04-23T08:25:34.018Z,16.60
2019-04-23T08:28:06.208Z,16.70
2019-04-23T08:30:33.365Z,16.70
2019-04-23T08:33:06.112Z,16.70
2019-04-23T08:35:36.166Z,16.70
2019-04-23T08:38:12.274Z,16.80
2019-04-23T08:40:33.556Z,16.80
2019-04-23T08:43:10.907Z,16.80
2019-04-23T08:45:48.478Z,16.90
2019-04-23T08:48:29.069Z,16.90
2019-04-23T08:50:55.943Z,16.90
2019-04-23T08:56:03.227Z,16.90
2019-04-23T08:58:29.203Z,17.00
2019-04-23T09:01:24.500Z,17.00
2019-04-23T09:03:34.409Z,17.00
2019-04-23T09:08:36.914Z,17.00
2019-04-23T09:15:55.948Z,17.10
2019-04-23T09:18:35.262Z,17.10
2019-04-23T09:20:53.025Z,17.10
2019-04-23T09:23:30.967Z,17.10
2019-04-23T09:28:28.586Z,17.20
2019-04-23T09:30:55.531Z,17.20
2019-04-23T09:33:37.750Z,17.20
2019-04-23T09:36:22.301Z,17.10
2019-04-23T09:39:00.490Z,17.20
2019-04-23T09:42:08.990Z,17.20
2019-04-23T09:45:00.162Z,17.30
2019-04-23T09:50:10.745Z,17.30
2019-04-23T09:52:41.221Z,17.30
2019-04-23T09:55:15.961Z,17.30
2019-04-23T09:57:33.860Z,17.30
2019-04-23T10:00:10.599Z,17.30
2019-04-23T10:02:27.456Z,17.30
2019-04-23T10:04:52.002Z,17.30
2019-04-23T10:07:16.466Z,17.40
2019-04-23T10:09:34.213Z,17.40
2019-04-23T10:12:03.109Z,17.40
2019-04-23T10:14:30.516Z,17.40
2019-04-23T10:16:59.901Z,17.40
2019-04-23T10:19:28.763Z,17.40
2019-04-23T10:21:57.419Z,17.40
2019-04-23T10:24:25.321Z,17.50
2019-04-23T10:26:53.112Z,17.50
2019-04-23T10:29:23.915Z,17.40
2019-04-23T10:31:53.470Z,17.50
2019-04-23T10:34:21.152Z,17.50
2019-04-23T10:36:49.462Z,17.50
2019-04-23T10:39:23.329Z,17.50
2019-04-23T10:41:47.918Z,17.50
2019-04-23T10:44:35.454Z,17.50
2019-04-23T10:48:11.932Z,17.50
2019-04-23T10:55:54.156Z,17.60
2019-04-23T11:00:53.416Z,17.70
2019-04-23T11:03:42.145Z,17.60
2019-04-23T11:08:18.759Z,17.70
2019-04-23T11:10:50.273Z,17.60
2019-04-23T11:16:13.426Z,17.70
2019-04-23T11:18:40.203Z,17.70
2019-04-23T11:20:56.734Z,17.70
2019-04-23T11:23:27.646Z,17.70
2019-04-23T11:25:49.211Z,17.70
2019-04-23T11:30:55.778Z,17.80
2019-04-23T11:33:30.040Z,17.80
2019-04-23T11:36:18.693Z,17.80
2019-04-23T11:41:00.135Z,17.80
2019-04-23T11:44:52.952Z,17.90
2019-04-23T11:46:06.264Z,17.90
2019-04-23T11:48:46.329Z,17.90
2019-04-23T11:53:36.997Z,18.00
2019-04-23T11:56:05.491Z,18.00
2019-04-23T11:58:29.054Z,18.00
2019-04-23T12:01:18.893Z,18.10
2019-04-23T12:03:47.082Z,18.10
2019-04-23T12:09:07.400Z,18.10
2019-04-23T12:11:53.349Z,18.10
2019-04-23T12:14:37.029Z,18.10
2019-04-23T12:17:13.348Z,18.10
2019-04-23T12:22:15.057Z,18.10
2019-04-23T12:24:56.844Z,18.10
2019-04-23T12:27:06.282Z,18.10
2019-04-23T12:34:59.590Z,18.20
2019-04-23T12:37:33.428Z,18.20
2019-04-23T12:40:03.114Z,18.20
2019-04-23T12:42:41.329Z,18.20
2019-04-23T12:44:56.884Z,18.20
2019-04-23T12:47:38.024Z,18.20
2019-04-23T12:50:05.159Z,18.20
2019-04-23T12:52:25.520Z,18.20
2019-04-23T12:55:05.305Z,18.20
2019-04-23T12:57:18.563Z,18.20
2019-04-23T13:02:25.723Z,18.30
2019-04-23T13:04:48.693Z,18.30
2019-04-23T13:07:17.247Z,18.30
2019-04-23T13:09:58.302Z,18.30
2019-04-23T13:12:29.326Z,18.30
2019-04-23T13:14:49.002Z,18.30
2019-04-23T13:17:39.695Z,18.30
2019-04-23T13:19:49.533Z,18.30
2019-04-23T13:22:16.528Z,18.30
2019-04-23T13:24:54.228Z,18.30
2019-04-23T13:27:38.620Z,18.30
2019-04-23T13:29:56.590Z,18.30
2019-04-23T13:32:27.509Z,18.30
2019-04-23T13:35:12.840Z,18.30
2019-04-23T13:37:29.516Z,18.30
2019-04-23T13:39:51.578Z,18.30
2019-04-23T13:42:31.860Z,18.30
2019-04-23T13:44:56.015Z,18.30
2019-04-23T13:47:38.544Z,18.30
2019-04-23T13:49:57.150Z,18.30
2019-04-23T13:52:50.104Z,18.30
2019-04-23T13:55:04.490Z,18.30
2019-04-23T13:57:46.546Z,18.40
2019-04-23T13:59:51.960Z,18.40
2019-04-23T14:05:12.720Z,18.40
2019-04-23T14:07:53.479Z,18.40
2019-04-23T14:12:50.777Z,18.40
2019-04-23T14:17:47.068Z,18.40
2019-04-23T14:20:07.165Z,18.40
2019-04-23T14:25:14.327Z,18.50
2019-04-23T14:27:52.374Z,18.50
2019-04-23T14:30:13.742Z,18.40
2019-04-23T14:32:43.242Z,18.40
2019-04-23T14:35:10.876Z,18.50
2019-04-23T14:37:36.638Z,18.50
2019-04-23T14:40:12.539Z,18.50
2019-04-23T14:48:00.817Z,18.40
2019-04-23T14:50:32.213Z,18.40
2019-04-23T14:53:08.159Z,18.50
2019-04-23T14:58:10.195Z,18.50
2019-04-23T15:02:59.340Z,18.50
2019-04-23T15:05:28.044Z,18.50
2019-04-23T15:07:58.733Z,18.50
2019-04-23T15:10:24.774Z,18.50
2019-04-23T15:12:54.362Z,18.50
2019-04-23T15:15:24.009Z,18.50
2019-04-23T15:17:49.700Z,18.50
2019-04-23T15:20:22.985Z,18.50
2019-04-23T15:25:43.935Z,18.50
2019-04-23T15:30:15.761Z,18.50
2019-04-23T15:33:03.872Z,18.50
2019-04-23T15:45:19.308Z,18.40
2019-04-23T15:47:48.074Z,18.40
2019-04-23T15:50:23.505Z,18.40
2019-04-23T15:52:55.388Z,18.40
2019-04-23T15:55:12.335Z,18.40
2019-04-23T15:58:05.679Z,18.40
2019-04-23T16:00:15.741Z,18.40
2019-04-23T16:02:15.512Z,18.40
2019-04-23T16:04:43.930Z,18.30
2019-04-23T16:07:16.891Z,18.40
2019-04-23T16:12:42.232Z,18.30
2019-04-23T16:17:37.540Z,18.30
2019-04-23T16:20:31.991Z,18.30
2019-04-23T16:22:39.369Z,18.30
2019-04-23T16:25:13.021Z,18.30
2019-04-23T16:27:51.351Z,18.30
2019-04-23T16:33:08.840Z,18.30
2019-04-23T16:35:59.985Z,18.30
2019-04-23T16:38:36.678Z,18.30
2019-04-23T16:40:54.813Z,18.30
2019-04-23T16:43:42.173Z,18.30
2019-04-23T16:51:12.309Z,18.30
2019-04-23T16:56:01.095Z,18.20
2019-04-23T16:58:33.648Z,18.20
2019-04-23T17:01:05.946Z,18.20
2019-04-23T17:05:59.424Z,18.20
2019-04-23T17:08:42.314Z,18.20
2019-04-23T17:13:25.569Z,18.10
2019-04-23T17:16:00.934Z,18.20
2019-04-23T17:18:29.547Z,18.20
2019-04-23T17:20:52.006Z,18.20
2019-04-23T17:23:34.493Z,18.20
2019-04-23T17:25:58.958Z,18.20
2019-04-23T17:28:21.978Z,18.20
2019-04-23T17:31:03.328Z,18.20
2019-04-23T17:33:35.332Z,18.10
2019-04-23T17:38:43.521Z,18.20
2019-04-23T17:43:54.748Z,18.10
2019-04-23T17:46:14.368Z,18.10
2019-04-23T17:48:40.206Z,18.10
2019-04-23T17:51:13.277Z,18.10
2019-04-23T17:54:06.884Z,18.10
2019-04-23T17:56:26.637Z,18.10
2019-04-23T17:59:00.776Z,18.10
2019-04-23T18:01:29.283Z,18.10
2019-04-23T18:03:55.951Z,18.10
2019-04-23T18:08:50.905Z,18.10
2019-04-23T18:11:17.903Z,18.10
2019-04-23T18:16:16.211Z,18.10
2019-04-23T18:18:59.135Z,18.10
2019-04-23T18:21:29.475Z,18.10
2019-04-23T18:24:13.514Z,18.10
2019-04-23T18:26:45.801Z,18.10
2019-04-23T18:29:25.610Z,18.10
2019-04-23T18:32:14.888Z,18.10
2019-04-23T18:34:42.097Z,18.10
2019-04-23T18:37:01.827Z,18.00
2019-04-23T18:39:38.955Z,18.00
2019-04-23T18:42:09.741Z,18.00
2019-04-23T18:44:36.355Z,18.10
2019-04-23T18:46:59.080Z,18.00
2019-04-23T18:49:35.083Z,18.00
2019-04-23T18:51:58.218Z,18.00
2019-04-23T18:54:29.704Z,18.00
2019-04-23T18:59:43.075Z,18.00
2019-04-23T19:02:20.614Z,18.00
2019-04-23T19:07:31.884Z,18.00
2019-04-23T19:12:54.917Z,18.00
2019-04-23T19:15:33.754Z,17.90
2019-04-23T19:20:31.023Z,17.90
2019-04-23T19:22:53.085Z,17.90
2019-04-23T19:25:23.102Z,17.90
2019-04-23T19:27:45.957Z,17.90
2019-04-23T19:30:38.487Z,17.90
2019-04-23T19:33:14.290Z,17.90
2019-04-23T19:35:58.625Z,17.80
2019-04-23T19:38:11.137Z,17.90
2019-04-23T19:40:46.630Z,17.80
2019-04-23T19:43:31.269Z,17.90
2019-04-23T19:45:53.009Z,17.80
2019-04-23T19:48:19.447Z,17.80
2019-04-23T19:50:49.050Z,17.80
2019-04-23T19:55:48.914Z,17.70
2019-04-23T20:00:55.650Z,17.70
2019-04-23T20:05:41.915Z,17.70
2019-04-23T20:08:13.295Z,17.60
2019-04-23T20:10:39.586Z,17.60
2019-04-23T20:13:13.631Z,17.60
2019-04-23T20:15:53.457Z,17.60
2019-04-23T20:17:59.528Z,17.60
2019-04-23T20:20:48.041Z,17.60
2019-04-23T20:23:15.375Z,17.50
2019-04-23T20:26:05.598Z,17.50
2019-04-23T20:28:31.121Z,17.50
2019-04-23T20:34:02.920Z,17.50
2019-04-23T20:36:33.767Z,17.50
2019-04-23T20:41:34.911Z,17.40
2019-04-23T20:43:55.841Z,17.40
2019-04-23T20:46:27.580Z,17.40
2019-04-23T20:51:24.614Z,17.40
2019-04-23T20:56:31.974Z,17.40
2019-04-23T21:04:01.622Z,17.30
2019-04-23T21:06:43.430Z,17.30
2019-04-23T21:11:38.452Z,17.30
2019-04-23T21:16:31.019Z,17.30
2019-04-23T21:19:15.977Z,17.20
2019-04-23T21:21:27.971Z,17.20
2019-04-23T21:26:17.051Z,17.20
2019-04-23T21:28:55.705Z,17.20
2019-04-23T21:31:35.494Z,17.10
2019-04-23T21:34:05.955Z,17.20
2019-04-23T21:36:37.799Z,17.20
2019-04-23T21:39:23.069Z,17.10
2019-04-23T21:41:58.027Z,17.10
2019-04-23T21:44:28.940Z,17.00
2019-04-23T21:46:58.915Z,17.00
2019-04-23T21:51:57.520Z,17.00
2019-04-23T21:54:22.976Z,17.00
2019-04-23T21:59:17.515Z,17.00
2019-04-23T22:01:59.085Z,17.00
2019-04-23T22:09:22.309Z,17.10
2019-04-23T22:14:29.012Z,17.00
2019-04-23T22:16:57.581Z,17.00
2019-04-23T22:19:23.111Z,16.90
2019-04-23T22:21:50.827Z,17.00
2019-04-23T22:24:16.603Z,17.00
2019-04-23T22:26:44.679Z,17.00
2019-04-23T22:29:26.251Z,17.00
2019-04-23T22:32:02.581Z,17.00
2019-04-23T22:34:21.714Z,17.00
2019-04-23T22:36:54.925Z,17.00
2019-04-23T22:39:16.496Z,17.00
2019-04-23T22:41:55.933Z,17.00
2019-04-23T22:44:39.950Z,17.00
2019-04-23T22:52:06.307Z,17.00
2019-04-23T22:54:13.693Z,17.00
2019-04-23T22:56:54.740Z,17.00
2019-04-23T22:59:28.051Z,17.00
2019-04-23T23:02:00.360Z,17.00
2019-04-23T23:04:24.329Z,17.00
2019-04-23T23:07:02.835Z,17.00
2019-04-23T23:09:33.444Z,17.00
2019-04-23T23:16:58.863Z,17.00
2019-04-23T23:19:28.463Z,17.00
2019-04-23T23:22:02.052Z,17.00
2019-04-23T23:24:18.605Z,17.00
2019-04-23T23:29:21.880Z,17.00
2019-04-23T23:32:00.212Z,16.90
2019-04-23T23:34:25.794Z,16.90
2019-04-23T23:36:54.298Z,16.90
2019-04-23T23:39:28.817Z,16.90
2019-04-23T23:44:43.486Z,16.80
2019-04-23T23:51:49.276Z,16.80
2019-04-23T23:54:13.354Z,16.80
2019-04-23T23:56:58.803Z,16.80
2019-04-23T23:59:18.108Z,16.80
